createdAt,value
2023-01-08T00:02:01.859Z,7.80
2023-01-08T00:05:44.061Z,7.80
2023-01-08T00:09:26.050Z,7.90
2023-01-08T00:13:08.363Z,7.90
2023-01-08T00:16:51.893Z,8.00
2023-01-08T00:20:33.899Z,8.00
2023-01-08T00:24:15.888Z,8.00
2023-01-08T00:27:57.848Z,8.10
2023-01-08T00:31:39.777Z,8.10
2023-01-08T00:35:21.696Z,8.20
2023-01-08T00:39:03.708Z,8.20
2023-01-08T00:42:45.693Z,8.20
2023-01-08T00:46:28.164Z,8.30
2023-01-08T00:50:11.049Z,8.30
2023-01-08T00:53:52.993Z,8.40
2023-01-08T00:57:36.080Z,8.40
2023-01-08T01:01:18.418Z,8.50
2023-01-08T01:05:00.441Z,8.60
2023-01-08T01:08:43.437Z,8.60
2023-01-08T01:12:25.461Z,8.60
2023-01-08T01:16:08.651Z,8.50
2023-01-08T01:19:50.586Z,8.60
2023-01-08T01:23:32.470Z,8.50
2023-01-08T01:27:14.372Z,8.50
2023-01-08T01:30:57.506Z,8.50
2023-01-08T01:34:39.531Z,8.40
2023-01-08T01:38:21.491Z,8.30
2023-01-08T01:42:03.499Z,8.30
2023-01-08T01:45:45.682Z,8.30
2023-01-08T01:49:27.910Z,8.30
2023-01-08T01:53:23.125Z,8.20
2023-01-08T01:57:05.830Z,8.10
2023-01-08T02:00:47.818Z,8.10
2023-01-08T02:04:29.826Z,8.00
2023-01-08T02:08:15.261Z,7.90
2023-01-08T02:12:18.419Z,7.90
2023-01-08T02:16:20.512Z,7.80
2023-01-08T02:20:22.756Z,7.70
2023-01-08T02:24:24.625Z,7.60
2023-01-08T02:28:11.288Z,7.50
2023-01-08T02:31:53.298Z,7.50
2023-01-08T02:35:40.233Z,7.40
2023-01-08T02:39:40.024Z,7.40
2023-01-08T02:43:35.296Z,7.30
2023-01-08T02:47:37.479Z,7.20
2023-01-08T02:51:29.003Z,7.20
2023-01-08T02:55:12.423Z,7.20
2023-01-08T02:58:56.061Z,7.10
2023-01-08T03:02:39.871Z,7.10
2023-01-08T03:06:22.697Z,7.20
2023-01-08T03:10:05.239Z,7.20
2023-01-08T03:14:09.245Z,7.30
2023-01-08T03:17:55.985Z,7.20
2023-01-08T03:21:38.738Z,7.20
2023-01-08T03:25:24.951Z,7.20
2023-01-08T03:29:11.625Z,7.10
2023-01-08T03:32:57.019Z,7.20
2023-01-08T03:36:43.232Z,7.10
2023-01-08T03:40:35.636Z,7.00
2023-01-08T03:44:17.598Z,6.90
2023-01-08T03:48:02.306Z,6.80
2023-01-08T03:51:47.493Z,6.70
2023-01-08T03:55:29.390Z,6.60
2023-01-08T03:59:12.770Z,6.60
2023-01-08T04:02:54.742Z,6.60
2023-01-08T04:06:37.213Z,6.50
2023-01-08T04:10:19.120Z,6.50
2023-01-08T04:14:01.118Z,6.60
2023-01-08T04:17:43.028Z,6.60
2023-01-08T04:21:24.942Z,6.60
2023-01-08T04:25:07.200Z,6.60
2023-01-08T04:28:49.131Z,6.50
2023-01-08T04:32:31.077Z,6.50
2023-01-08T04:36:13.247Z,6.50
2023-01-08T04:39:55.170Z,6.50
2023-01-08T04:43:37.093Z,6.50
2023-01-08T04:47:19.036Z,6.50
2023-01-08T04:51:02.112Z,6.50
2023-01-08T04:54:44.067Z,6.40
2023-01-08T04:58:26.022Z,6.40
2023-01-08T05:02:08.089Z,6.40
2023-01-08T05:05:50.180Z,6.30
2023-01-08T05:09:32.110Z,6.30
2023-01-08T05:13:14.046Z,6.30
2023-01-08T05:16:56.015Z,6.30
2023-01-08T05:20:37.971Z,6.30
2023-01-08T05:24:19.879Z,6.20
2023-01-08T05:28:02.251Z,6.20
2023-01-08T05:31:45.311Z,6.20
2023-01-08T05:35:27.236Z,6.10
2023-01-08T05:39:09.223Z,6.20
2023-01-08T05:42:51.188Z,6.20
2023-01-08T05:46:33.145Z,6.10
2023-01-08T05:50:15.394Z,6.10
2023-01-08T05:53:57.883Z,6.10
2023-01-08T05:57:39.822Z,6.10
2023-01-08T06:01:22.569Z,6.20
2023-01-08T06:05:05.114Z,6.20
2023-01-08T06:08:47.034Z,6.20
2023-01-08T06:12:28.983Z,6.10
2023-01-08T06:16:11.790Z,6.10
2023-01-08T06:19:53.678Z,6.00
2023-01-08T06:23:35.688Z,6.00
2023-01-08T06:27:17.619Z,6.00
2023-01-08T06:31:00.711Z,6.00
2023-01-08T06:34:42.727Z,6.00
2023-01-08T06:38:24.682Z,6.10
2023-01-08T06:42:06.665Z,6.10
2023-01-08T06:45:58.384Z,6.10
2023-01-08T06:49:40.333Z,6.00
2023-01-08T06:53:22.294Z,6.10
2023-01-08T06:57:04.258Z,6.10
2023-01-08T07:00:46.176Z,6.00
2023-01-08T07:04:28.079Z,6.00
2023-01-08T07:08:17.090Z,5.90
2023-01-08T07:11:58.980Z,5.90
2023-01-08T07:15:42.320Z,5.90
2023-01-08T07:19:24.296Z,5.90
2023-01-08T07:23:10.125Z,5.90
2023-01-08T07:26:52.381Z,5.80
2023-01-08T07:30:34.373Z,5.80
2023-01-08T07:34:16.363Z,5.80
2023-01-08T07:37:58.474Z,5.80
2023-01-08T07:41:40.481Z,5.80
2023-01-08T07:45:22.477Z,5.90
2023-01-08T07:49:06.105Z,6.00
2023-01-08T07:52:48.093Z,6.10
2023-01-08T07:56:31.241Z,6.20
2023-01-08T08:00:14.820Z,6.40
2023-01-08T08:03:56.843Z,6.50
2023-01-08T08:07:38.869Z,6.70
2023-01-08T08:11:20.793Z,6.80
2023-01-08T08:15:02.786Z,6.90
2023-01-08T08:18:44.739Z,7.10
2023-01-08T08:22:27.215Z,7.20
2023-01-08T08:26:09.224Z,7.30
2023-01-08T08:29:51.154Z,7.40
2023-01-08T08:33:33.176Z,7.50
2023-01-08T08:37:15.147Z,7.60
2023-01-08T08:40:57.322Z,7.60
2023-01-08T08:44:40.760Z,7.70
2023-01-08T08:48:24.658Z,7.80
2023-01-08T08:52:06.730Z,7.80
2023-01-08T08:55:48.753Z,7.90
2023-01-08T08:59:30.649Z,7.90
2023-01-08T09:03:16.707Z,7.90
2023-01-08T09:06:59.219Z,7.80
2023-01-08T09:10:42.476Z,7.70
2023-01-08T09:14:24.851Z,7.70
2023-01-08T09:18:06.855Z,7.70
2023-01-08T09:21:50.485Z,7.70
2023-01-08T09:25:32.530Z,7.80
2023-01-08T09:29:14.515Z,7.80
2023-01-08T09:32:59.269Z,7.80
2023-01-08T09:36:42.369Z,7.90
2023-01-08T09:40:28.575Z,8.00
2023-01-08T09:44:22.234Z,8.10
2023-01-08T09:48:07.922Z,8.10
2023-01-08T09:51:50.104Z,8.20
2023-01-08T09:55:34.530Z,8.30
2023-01-08T09:59:20.386Z,8.30
2023-01-08T10:03:02.620Z,8.40
2023-01-08T10:06:56.287Z,8.50
2023-01-08T10:10:39.367Z,8.50
2023-01-08T10:14:28.388Z,8.70
2023-01-08T10:18:14.764Z,8.70
2023-01-08T10:21:57.819Z,8.80
2023-01-08T10:25:57.489Z,8.80
2023-01-08T10:29:42.256Z,8.80
2023-01-08T10:33:38.920Z,8.80
2023-01-08T10:37:53.888Z,8.80
2023-01-08T10:41:40.055Z,8.70
2023-01-08T10:45:28.993Z,8.70
2023-01-08T10:49:43.444Z,8.60
2023-01-08T10:53:28.636Z,8.60
2023-01-08T10:57:31.107Z,8.50
2023-01-08T11:01:31.361Z,8.50
2023-01-08T11:05:13.400Z,8.50
2023-01-08T11:08:58.713Z,8.50
2023-01-08T11:12:41.799Z,8.40
2023-01-08T11:16:35.752Z,8.30
2023-01-08T11:20:31.135Z,8.20
2023-01-08T11:24:21.508Z,8.10
2023-01-08T11:28:06.032Z,8.00
2023-01-08T11:31:51.775Z,7.90
2023-01-08T11:35:39.288Z,7.90
2023-01-08T11:39:21.374Z,7.80
2023-01-08T11:43:06.136Z,7.80
2023-01-08T11:47:25.364Z,7.70
2023-01-08T11:51:22.113Z,7.70
2023-01-08T11:55:31.027Z,7.60
2023-01-08T11:59:52.730Z,7.50
2023-01-08T12:03:40.909Z,7.60
2023-01-08T12:07:47.226Z,7.70
2023-01-08T12:11:32.819Z,7.80
2023-01-08T12:15:44.090Z,7.90
2023-01-08T12:19:25.929Z,8.00
2023-01-08T12:23:37.537Z,8.00
2023-01-08T12:27:55.376Z,8.00
2023-01-08T12:32:19.833Z,8.00
2023-01-08T12:36:08.718Z,8.00
2023-01-08T12:40:02.353Z,8.00
2023-01-08T12:44:22.856Z,8.00
2023-01-08T12:48:08.495Z,8.00
2023-01-08T12:52:01.884Z,8.00
2023-01-08T12:56:02.497Z,8.10
2023-01-08T13:00:22.907Z,8.10
2023-01-08T13:04:07.411Z,8.10
2023-01-08T13:08:00.045Z,8.20
2023-01-08T13:11:43.011Z,8.20
2023-01-08T13:15:27.177Z,8.20
2023-01-08T13:19:28.040Z,8.20
2023-01-08T13:23:24.903Z,8.30
2023-01-08T13:27:31.800Z,8.30
2023-01-08T13:31:24.554Z,8.40
2023-01-08T13:35:15.664Z,8.40
2023-01-08T13:39:21.230Z,8.40
2023-01-08T13:43:06.133Z,8.40
2023-01-08T13:46:55.815Z,8.30
2023-01-08T13:50:38.516Z,8.30
2023-01-08T13:54:42.701Z,8.20
2023-01-08T13:58:26.892Z,8.20
2023-01-08T14:02:29.988Z,8.20
2023-01-08T14:06:20.923Z,8.10
2023-01-08T14:10:13.073Z,7.90
2023-01-08T14:13:56.214Z,7.90
2023-01-08T14:17:38.254Z,7.70
2023-01-08T14:21:23.842Z,7.60
2023-01-08T14:25:07.768Z,7.60
2023-01-08T14:28:53.198Z,7.50
2023-01-08T14:32:35.161Z,7.40
2023-01-08T14:36:17.876Z,7.20
2023-01-08T14:39:59.819Z,7.20
2023-01-08T14:43:47.330Z,7.20
2023-01-08T14:47:32.627Z,7.10
2023-01-08T14:51:20.678Z,7.10
2023-01-08T14:55:03.943Z,7.00
2023-01-08T14:58:47.060Z,7.00
2023-01-08T15:02:34.918Z,7.00
2023-01-08T15:06:28.045Z,7.00
2023-01-08T15:10:34.869Z,7.00
2023-01-08T15:14:26.467Z,7.00
2023-01-08T15:18:11.968Z,7.00
2023-01-08T15:21:59.955Z,6.90
2023-01-08T15:25:45.127Z,6.90
2023-01-08T15:29:33.464Z,6.80
2023-01-08T15:33:23.241Z,6.70
2023-01-08T15:37:05.144Z,6.60
2023-01-08T15:40:48.256Z,6.40
2023-01-08T15:44:30.108Z,6.40
2023-01-08T15:48:12.334Z,6.30
2023-01-08T15:51:54.252Z,6.20
2023-01-08T15:55:37.652Z,6.10
2023-01-08T15:59:19.565Z,6.10
2023-01-08T16:03:03.830Z,6.10
2023-01-08T16:06:45.674Z,6.20
2023-01-08T16:10:29.148Z,6.20
2023-01-08T16:14:11.411Z,6.20
2023-01-08T16:17:53.300Z,6.10
2023-01-08T16:21:35.157Z,6.00
2023-01-08T16:25:17.064Z,5.90
2023-01-08T16:28:58.946Z,5.80
2023-01-08T16:32:41.033Z,5.70
2023-01-08T16:36:22.891Z,5.60
2023-01-08T16:40:05.365Z,5.50
2023-01-08T16:43:47.309Z,5.40
2023-01-08T16:47:29.778Z,5.30
2023-01-08T16:51:12.126Z,5.10
2023-01-08T16:54:54.031Z,5.10
2023-01-08T16:58:37.520Z,5.00
2023-01-08T17:02:19.440Z,4.90
2023-01-08T17:06:07.921Z,4.80
2023-01-08T17:09:49.815Z,4.70
2023-01-08T17:13:31.705Z,4.60
2023-01-08T17:17:13.551Z,4.50
2023-01-08T17:20:55.550Z,4.50
2023-01-08T17:24:37.610Z,4.50
2023-01-08T17:28:19.547Z,4.40
2023-01-08T17:32:01.499Z,4.50
2023-01-08T17:35:44.756Z,4.60
2023-01-08T17:39:26.717Z,4.70
2023-01-08T17:43:08.567Z,4.90
2023-01-08T17:46:50.397Z,5.00
2023-01-08T17:50:32.372Z,5.10
2023-01-08T17:54:16.056Z,5.20
2023-01-08T17:57:57.974Z,5.20
2023-01-08T18:01:40.126Z,5.20
2023-01-08T18:05:22.073Z,5.20
2023-01-08T18:09:04.833Z,5.20
2023-01-08T18:12:46.749Z,5.10
2023-01-08T18:16:29.880Z,5.00
2023-01-08T18:20:12.046Z,4.90
2023-01-08T18:23:53.893Z,4.80
2023-01-08T18:27:35.857Z,4.70
2023-01-08T18:31:17.911Z,4.70
2023-01-08T18:34:59.914Z,4.60
2023-01-08T18:38:43.607Z,4.50
2023-01-08T18:42:25.668Z,4.50
2023-01-08T18:46:08.354Z,4.50
2023-01-08T18:49:55.021Z,4.70
2023-01-08T18:53:36.865Z,4.80
2023-01-08T18:57:18.824Z,4.90
2023-01-08T19:01:04.545Z,5.00
2023-01-08T19:04:46.500Z,5.10
2023-01-08T19:08:28.523Z,5.30
2023-01-08T19:12:10.444Z,5.40
2023-01-08T19:15:52.339Z,5.60
2023-01-08T19:19:34.230Z,5.80
2023-01-08T19:23:16.218Z,5.90
2023-01-08T19:26:58.129Z,5.90
2023-01-08T19:30:40.467Z,6.00
2023-01-08T19:34:22.413Z,6.10
2023-01-08T19:38:04.336Z,6.20
2023-01-08T19:42:04.687Z,6.40
2023-01-08T19:45:46.643Z,6.40
2023-01-08T19:49:28.609Z,6.60
2023-01-08T19:53:12.306Z,6.60
2023-01-08T19:56:56.019Z,6.60
2023-01-08T20:00:39.533Z,6.60
2023-01-08T20:04:21.941Z,6.60
2023-01-08T20:08:03.952Z,6.60
2023-01-08T20:11:45.804Z,6.70
2023-01-08T20:15:29.024Z,6.70
2023-01-08T20:19:11.023Z,6.70
2023-01-08T20:22:52.887Z,6.70
2023-01-08T20:26:36.221Z,6.70
2023-01-08T20:30:18.194Z,6.70
2023-01-08T20:34:04.179Z,6.70
2023-01-08T20:37:46.930Z,6.70
2023-01-08T20:41:29.325Z,6.70
2023-01-08T20:45:11.516Z,6.70
2023-01-08T20:48:53.439Z,6.70
2023-01-08T20:52:35.359Z,6.80
2023-01-08T20:56:17.490Z,6.90
2023-01-08T20:59:59.396Z,6.90
2023-01-08T21:03:42.005Z,6.90
2023-01-08T21:07:23.926Z,6.90
2023-01-08T21:11:07.764Z,6.90
2023-01-08T21:14:49.910Z,7.00
2023-01-08T21:18:31.859Z,7.00
2023-01-08T21:22:13.717Z,7.00
2023-01-08T21:26:00.411Z,7.00
2023-01-08T21:29:42.287Z,7.10
2023-01-08T21:33:25.015Z,7.10
2023-01-08T21:37:08.594Z,7.10
2023-01-08T21:40:59.599Z,7.10
2023-01-08T21:45:00.197Z,7.10
2023-01-08T21:48:43.228Z,7.00
2023-01-08T21:52:43.439Z,7.00
2023-01-08T21:56:25.309Z,6.90
2023-01-08T22:00:08.418Z,6.90
2023-01-08T22:03:50.403Z,6.90
2023-01-08T22:07:32.773Z,6.80
2023-01-08T22:11:14.657Z,6.80
2023-01-08T22:14:57.450Z,6.80
2023-01-08T22:18:39.891Z,6.80
2023-01-08T22:22:21.812Z,6.80
2023-01-08T22:26:05.411Z,6.80
2023-01-08T22:29:48.222Z,6.90
2023-01-08T22:33:30.091Z,7.00
2023-01-08T22:37:11.960Z,7.00
2023-01-08T22:40:53.864Z,6.90
2023-01-08T22:44:35.932Z,6.90
2023-01-08T22:48:17.798Z,6.80
2023-01-08T22:51:59.870Z,6.70
2023-01-08T22:55:47.138Z,6.60
2023-01-08T22:59:28.979Z,6.50
2023-01-08T23:03:11.388Z,6.50
2023-01-08T23:06:53.236Z,6.40
2023-01-08T23:10:35.321Z,6.30
2023-01-08T23:14:17.200Z,6.20
2023-01-08T23:17:59.041Z,6.20
2023-01-08T23:21:41.031Z,6.10
2023-01-08T23:25:22.952Z,6.00
2023-01-08T23:29:04.878Z,6.00
2023-01-08T23:32:46.806Z,6.00
2023-01-08T23:36:28.681Z,5.90
2023-01-08T23:40:11.302Z,5.90
2023-01-08T23:43:54.734Z,5.90
2023-01-08T23:47:36.770Z,5.80
2023-01-08T23:51:18.656Z,5.80
2023-01-08T23:55:00.608Z,5.80
2023-01-08T23:58:42.554Z,5.80
